createdAt,value
2017-08-06T00:00:00.790Z,3.90
2017-08-06T00:02:28.373Z,5.70
2017-08-06T00:04:55.920Z,5.20
2017-08-06T00:07:23.485Z,5.50
2017-08-06T00:09:51.052Z,5.37
2017-08-06T00:12:18.596Z,4.53
2017-08-06T00:14:46.176Z,3.37
2017-08-06T00:17:13.734Z,4.27
2017-08-06T00:19:41.291Z,4.37
2017-08-06T00:22:08.874Z,5.17
2017-08-06T00:24:36.428Z,3.73
2017-08-06T00:27:03.994Z,5.03
2017-08-06T00:29:31.539Z,4.23
2017-08-06T00:31:59.102Z,8.20
2017-08-06T00:34:26.692Z,5.00
2017-08-06T00:36:54.221Z,5.70
2017-08-06T00:39:21.774Z,5.77
2017-08-06T00:41:49.317Z,8.80
2017-08-06T00:44:17.011Z,8.23
2017-08-06T00:46:44.556Z,6.60
2017-08-06T00:49:12.117Z,6.13
2017-08-06T00:51:39.680Z,5.53
2017-08-06T00:54:07.256Z,9.40
2017-08-06T00:56:34.814Z,5.03
2017-08-06T00:59:02.352Z,5.87
2017-08-06T01:01:29.944Z,4.93
2017-08-06T01:03:57.489Z,7.40
2017-08-06T01:06:25.046Z,7.80
2017-08-06T01:08:52.687Z,7.87
2017-08-06T01:11:20.250Z,5.33
2017-08-06T01:13:47.819Z,4.80
2017-08-06T01:16:15.356Z,5.50
2017-08-06T01:18:43.175Z,7.40
2017-08-06T01:21:10.692Z,8.33
2017-08-06T01:23:38.213Z,5.57
2017-08-06T01:26:05.758Z,5.17
2017-08-06T01:28:33.318Z,4.10
2017-08-06T01:31:00.875Z,4.63
2017-08-06T01:33:28.417Z,4.67
2017-08-06T01:35:56.262Z,3.73
2017-08-06T01:38:23.778Z,4.13
2017-08-06T01:40:51.322Z,4.10
2017-08-06T01:43:18.874Z,4.03
2017-08-06T01:45:46.424Z,4.80
2017-08-06T01:48:13.979Z,4.07
2017-08-06T01:50:41.529Z,4.50
2017-08-06T01:53:09.346Z,8.00
2017-08-06T01:55:36.878Z,3.50
2017-08-06T01:58:04.432Z,4.50
2017-08-06T02:00:32.134Z,5.17
2017-08-06T02:02:59.675Z,6.87
2017-08-06T02:05:27.235Z,4.07
2017-08-06T02:07:54.777Z,5.37
2017-08-06T02:10:22.321Z,10.13
2017-08-06T02:12:49.878Z,4.10
2017-08-06T02:15:17.420Z,5.40
2017-08-06T02:17:44.973Z,5.30
2017-08-06T02:20:12.502Z,4.83
2017-08-06T02:22:40.037Z,7.90
2017-08-06T02:25:07.604Z,5.30
2017-08-06T02:27:35.209Z,5.57
2017-08-06T02:30:02.764Z,4.87
2017-08-06T02:32:30.324Z,8.43
2017-08-06T02:34:57.885Z,5.40
2017-08-06T02:37:25.413Z,6.70
2017-08-06T02:39:52.946Z,7.70
2017-08-06T02:42:20.490Z,4.97
2017-08-06T02:44:48.059Z,5.43
2017-08-06T02:47:15.614Z,11.93
2017-08-06T02:49:43.181Z,7.03
2017-08-06T02:52:10.746Z,5.70
2017-08-06T02:54:38.283Z,9.93
2017-08-06T02:57:05.846Z,5.30
2017-08-06T02:59:34.235Z,6.00
2017-08-06T03:02:01.848Z,7.93
2017-08-06T03:04:29.385Z,6.03
2017-08-06T03:06:56.927Z,5.37
2017-08-06T03:09:24.488Z,5.60
2017-08-06T03:11:52.041Z,11.67
2017-08-06T03:14:19.612Z,5.67
2017-08-06T03:16:47.153Z,5.73
2017-08-06T03:19:14.688Z,5.57
2017-08-06T03:21:42.939Z,8.10
2017-08-06T03:24:10.475Z,5.93
2017-08-06T03:26:38.032Z,6.13
2017-08-06T03:29:05.589Z,5.10
2017-08-06T03:31:33.133Z,7.30
2017-08-06T03:34:00.682Z,5.50
2017-08-06T03:36:28.357Z,9.63
2017-08-06T03:38:56.170Z,5.20
2017-08-06T03:41:23.718Z,4.63
2017-08-06T03:43:51.282Z,5.43
2017-08-06T03:46:18.836Z,4.80
2017-08-06T03:48:46.428Z,4.37
2017-08-06T03:51:13.979Z,5.83
2017-08-06T03:53:41.498Z,6.30
2017-08-06T03:56:09.044Z,5.67
2017-08-06T03:58:36.610Z,6.00
2017-08-06T04:01:04.177Z,5.27
2017-08-06T04:03:31.708Z,7.17
2017-08-06T04:05:59.260Z,9.00
2017-08-06T04:08:26.804Z,5.63
2017-08-06T04:10:54.378Z,6.33
2017-08-06T04:13:21.922Z,6.87
2017-08-06T04:15:49.486Z,6.40
2017-08-06T04:18:17.030Z,6.80
2017-08-06T04:20:44.581Z,11.07
2017-08-06T04:23:12.139Z,5.57
2017-08-06T04:25:39.689Z,5.43
2017-08-06T04:28:07.346Z,6.13
2017-08-06T04:30:34.903Z,5.77
2017-08-06T04:33:02.429Z,6.47
2017-08-06T04:35:30.025Z,5.43
2017-08-06T04:37:57.566Z,5.90
2017-08-06T04:40:25.216Z,8.80
2017-08-06T04:42:52.773Z,6.23
2017-08-06T04:45:20.331Z,7.80
2017-08-06T04:47:47.885Z,7.00
2017-08-06T04:50:15.442Z,7.50
2017-08-06T04:52:43.269Z,8.03
2017-08-06T04:55:11.053Z,8.13
2017-08-06T04:57:38.627Z,5.40
2017-08-06T05:00:06.200Z,6.77
2017-08-06T05:02:33.737Z,11.93
2017-08-06T05:05:01.285Z,5.37
2017-08-06T05:07:28.802Z,8.80
2017-08-06T05:09:56.621Z,5.40
2017-08-06T05:12:24.162Z,6.33
2017-08-06T05:14:51.698Z,5.47
2017-08-06T05:17:19.242Z,6.40
2017-08-06T05:19:46.780Z,7.60
2017-08-06T05:22:14.318Z,6.93
2017-08-06T05:24:41.926Z,5.70
2017-08-06T05:27:09.506Z,5.10
2017-08-06T05:29:37.050Z,8.33
2017-08-06T05:32:04.653Z,4.23
2017-08-06T05:34:32.232Z,5.43
2017-08-06T05:36:59.790Z,4.37
2017-08-06T05:39:27.345Z,5.37
2017-08-06T05:41:55.129Z,4.10
2017-08-06T05:44:22.702Z,4.10
2017-08-06T05:46:50.237Z,8.40
2017-08-06T05:49:17.791Z,4.20
2017-08-06T05:51:45.352Z,4.90
2017-08-06T05:54:12.908Z,4.57
2017-08-06T05:56:40.460Z,6.93
2017-08-06T05:59:07.999Z,4.97
2017-08-06T06:01:35.581Z,5.57
2017-08-06T06:04:03.145Z,4.20
2017-08-06T06:06:30.756Z,3.60
2017-08-06T06:08:58.314Z,4.77
2017-08-06T06:11:25.859Z,4.27
2017-08-06T06:13:53.432Z,4.07
2017-08-06T06:16:21.050Z,6.20
2017-08-06T06:18:48.857Z,4.47
2017-08-06T06:21:16.433Z,5.27
2017-08-06T06:23:43.978Z,6.00
2017-08-06T06:26:11.551Z,5.17
2017-08-06T06:28:39.132Z,4.57
2017-08-06T06:31:06.694Z,4.60
2017-08-06T06:33:34.262Z,5.23
2017-08-06T06:36:02.129Z,4.50
2017-08-06T06:38:29.693Z,5.73
2017-08-06T06:40:57.241Z,5.23
2017-08-06T06:43:24.814Z,5.43
2017-08-06T06:45:52.376Z,5.40
2017-08-06T06:48:20.040Z,4.70
2017-08-06T06:50:47.621Z,8.63
2017-08-06T06:53:15.178Z,4.70
2017-08-06T06:55:42.748Z,5.37
2017-08-06T06:58:10.312Z,5.17
2017-08-06T07:00:37.914Z,5.77
2017-08-06T07:03:05.465Z,4.97
2017-08-06T07:05:33.048Z,6.37
2017-08-06T07:08:00.586Z,5.20
2017-08-06T07:10:28.178Z,5.77
2017-08-06T07:12:55.739Z,8.03
2017-08-06T07:15:23.309Z,5.40
2017-08-06T07:17:50.912Z,5.30
2017-08-06T07:20:18.457Z,6.50
2017-08-06T07:22:46.027Z,8.13
2017-08-06T07:25:13.616Z,7.37
2017-08-06T07:27:41.176Z,7.53
2017-08-06T07:30:08.737Z,7.00
2017-08-06T07:32:36.301Z,9.33
2017-08-06T07:35:03.877Z,8.53
2017-08-06T07:37:31.460Z,9.40
2017-08-06T07:39:59.004Z,6.63
2017-08-06T07:42:26.872Z,10.43
2017-08-06T07:44:54.456Z,9.17
2017-08-06T07:47:22.031Z,9.80
2017-08-06T07:49:49.624Z,6.27
2017-08-06T07:52:17.227Z,6.73
2017-08-06T07:54:44.816Z,5.83
2017-08-06T07:57:12.426Z,6.00
2017-08-06T07:59:40.014Z,5.60
2017-08-06T08:02:07.719Z,6.30
2017-08-06T08:04:35.547Z,6.30
2017-08-06T08:07:03.146Z,5.50
2017-08-06T08:09:30.688Z,5.73
2017-08-06T08:11:58.264Z,8.90
2017-08-06T08:14:25.866Z,6.30
2017-08-06T08:16:53.679Z,4.47
2017-08-06T08:19:21.253Z,5.77
2017-08-06T08:21:48.890Z,5.70
2017-08-06T08:24:16.473Z,6.87
2017-08-06T08:26:44.054Z,5.00
2017-08-06T08:29:11.604Z,5.20
2017-08-06T08:31:39.180Z,6.73
2017-08-06T08:34:06.757Z,5.30
2017-08-06T08:36:34.369Z,8.40
2017-08-06T08:39:01.943Z,6.57
2017-08-06T08:41:30.021Z,4.60
2017-08-06T08:43:57.616Z,3.80
2017-08-06T08:46:25.158Z,5.40
2017-08-06T08:48:52.747Z,7.67
2017-08-06T08:51:20.302Z,5.20
2017-08-06T08:53:48.144Z,6.50
2017-08-06T08:56:15.717Z,4.97
2017-08-06T08:58:43.281Z,3.80
2017-08-06T09:01:10.848Z,3.43
2017-08-06T09:03:38.421Z,4.10
2017-08-06T09:06:06.001Z,4.83
2017-08-06T09:08:33.667Z,3.63
2017-08-06T09:11:01.592Z,3.70
2017-08-06T09:13:29.339Z,6.00
2017-08-06T09:15:57.002Z,4.90
2017-08-06T09:18:24.677Z,4.93
2017-08-06T09:20:52.322Z,3.90
2017-08-06T09:23:19.991Z,4.87
2017-08-06T09:25:47.641Z,5.07
2017-08-06T09:28:15.543Z,3.97
2017-08-06T09:30:43.460Z,4.03
2017-08-06T09:33:11.212Z,5.07
2017-08-06T09:35:39.012Z,3.00
2017-08-06T09:38:06.845Z,4.03
2017-08-06T09:40:34.626Z,4.47
2017-08-06T09:43:02.299Z,2.60
2017-08-06T09:45:30.190Z,5.97
2017-08-06T09:47:57.737Z,3.13
2017-08-06T09:50:25.291Z,2.90
2017-08-06T09:52:52.851Z,4.37
2017-08-06T09:55:20.434Z,3.10
2017-08-06T09:57:47.969Z,2.33
2017-08-06T10:00:15.798Z,2.13
2017-08-06T10:02:43.341Z,3.43
2017-08-06T10:05:10.900Z,2.73
2017-08-06T10:07:38.464Z,3.17
2017-08-06T10:10:06.025Z,3.00
2017-08-06T10:12:33.585Z,2.43
2017-08-06T10:15:01.153Z,3.27
2017-08-06T10:17:28.966Z,3.37
2017-08-06T10:19:56.743Z,4.20
2017-08-06T10:22:24.301Z,2.90
2017-08-06T10:24:51.868Z,2.70
2017-08-06T10:27:19.406Z,6.60
2017-08-06T10:29:47.005Z,2.87
2017-08-06T10:32:14.591Z,2.13
2017-08-06T10:34:42.136Z,3.40
2017-08-06T10:37:09.728Z,2.70
2017-08-06T10:39:37.359Z,3.27
2017-08-06T10:42:05.224Z,2.93
2017-08-06T10:44:32.861Z,2.50
2017-08-06T10:47:00.424Z,2.83
2017-08-06T10:49:28.046Z,2.73
2017-08-06T10:51:55.597Z,2.10
2017-08-06T10:54:23.205Z,2.40
2017-08-06T10:56:50.750Z,6.57
2017-08-06T10:59:18.307Z,9.03
2017-08-06T11:01:45.845Z,2.00
2017-08-06T11:04:13.400Z,1.93
2017-08-06T11:06:40.988Z,12.90
2017-08-06T11:09:08.536Z,2.13
2017-08-06T11:11:36.350Z,3.03
2017-08-06T11:14:03.907Z,2.27
2017-08-06T11:16:31.475Z,2.37
2017-08-06T11:18:59.075Z,2.50
2017-08-06T11:21:26.641Z,2.00
2017-08-06T11:23:54.482Z,1.50
2017-08-06T11:26:22.045Z,2.57
2017-08-06T11:28:49.612Z,2.13
2017-08-06T11:31:17.224Z,1.40
2017-08-06T11:33:45.002Z,1.80
2017-08-06T11:36:12.918Z,1.77
2017-08-06T11:38:40.491Z,1.53
2017-08-06T11:41:08.037Z,1.63
2017-08-06T11:43:35.600Z,2.67
2017-08-06T11:46:03.186Z,2.13
2017-08-06T11:48:31.025Z,1.70
2017-08-06T11:50:58.557Z,1.87
2017-08-06T11:53:26.101Z,2.03
2017-08-06T11:55:53.665Z,3.87
2017-08-06T11:58:21.238Z,2.53
2017-08-06T12:00:49.055Z,1.67
2017-08-06T12:03:16.602Z,1.73
2017-08-06T12:05:44.157Z,2.60
2017-08-06T12:08:11.721Z,1.80
2017-08-06T12:10:39.447Z,1.67
2017-08-06T12:13:07.057Z,2.40
2017-08-06T12:15:34.603Z,1.73
2017-08-06T12:18:02.181Z,2.60
2017-08-06T12:20:29.763Z,2.20
2017-08-06T12:22:57.304Z,1.40
2017-08-06T12:25:25.121Z,1.50
2017-08-06T12:27:52.672Z,1.93
2017-08-06T12:30:20.217Z,1.80
2017-08-06T12:32:47.832Z,1.50
2017-08-06T12:35:15.405Z,1.83
2017-08-06T12:37:42.981Z,1.30
2017-08-06T12:40:10.529Z,1.57
2017-08-06T12:42:38.083Z,1.70
2017-08-06T12:45:05.654Z,1.40
2017-08-06T12:47:33.227Z,2.97
2017-08-06T12:50:00.832Z,1.50
2017-08-06T12:52:28.382Z,1.90
2017-08-06T12:54:55.937Z,1.50
2017-08-06T12:57:23.719Z,3.70
2017-08-06T12:59:51.669Z,1.70
2017-08-06T13:02:22.107Z,1.40
2017-08-06T13:04:49.661Z,2.60
2017-08-06T13:07:17.222Z,1.53
2017-08-06T13:09:44.795Z,6.40
2017-08-06T13:12:12.351Z,1.40
2017-08-06T13:14:40.189Z,1.60
2017-08-06T13:17:07.745Z,2.80
2017-08-06T13:19:35.300Z,3.00
2017-08-06T13:22:02.870Z,1.60
2017-08-06T13:24:30.398Z,1.87
2017-08-06T13:26:57.953Z,3.10
2017-08-06T13:29:25.529Z,3.00
2017-08-06T13:31:53.090Z,1.70
2017-08-06T13:34:20.644Z,4.97
2017-08-06T13:36:48.204Z,2.97
2017-08-06T13:39:16.024Z,1.80
2017-08-06T13:41:43.569Z,1.63
2017-08-06T13:44:11.103Z,1.40
2017-08-06T13:46:38.668Z,1.43
2017-08-06T13:49:06.215Z,1.83
2017-08-06T13:51:33.772Z,1.40
2017-08-06T13:54:01.367Z,3.33
2017-08-06T13:56:28.926Z,1.70
2017-08-06T13:58:56.486Z,1.40
2017-08-06T14:01:24.024Z,1.77
2017-08-06T14:03:51.578Z,1.63
2017-08-06T14:06:19.139Z,1.83
2017-08-06T14:08:46.676Z,1.60
2017-08-06T14:11:14.237Z,2.10
2017-08-06T14:13:41.791Z,1.60
2017-08-06T14:16:09.630Z,2.20
2017-08-06T14:18:37.185Z,1.70
2017-08-06T14:21:04.732Z,1.90
2017-08-06T14:23:32.293Z,1.47
2017-08-06T14:25:59.838Z,1.50
2017-08-06T14:28:28.323Z,3.30
2017-08-06T14:30:55.870Z,1.53
2017-08-06T14:33:23.434Z,4.40
2017-08-06T14:35:51.017Z,1.60
2017-08-06T14:38:18.574Z,1.70
2017-08-06T14:40:46.384Z,1.63
2017-08-06T14:43:13.980Z,1.63
2017-08-06T14:45:41.538Z,1.60
2017-08-06T14:48:09.095Z,3.00
2017-08-06T14:50:36.636Z,1.50
2017-08-06T14:53:04.452Z,1.50
2017-08-06T14:55:32.003Z,1.70
2017-08-06T14:57:59.567Z,1.30
2017-08-06T15:00:27.139Z,1.63
2017-08-06T15:02:54.683Z,1.47
2017-08-06T15:05:22.242Z,1.43
2017-08-06T15:07:49.844Z,1.70
2017-08-06T15:10:17.401Z,1.50
2017-08-06T15:12:44.990Z,2.27
2017-08-06T15:15:12.535Z,1.50
2017-08-06T15:17:40.099Z,1.50
2017-08-06T15:20:07.685Z,2.43
2017-08-06T15:22:35.232Z,1.40
2017-08-06T15:25:03.052Z,4.30
2017-08-06T15:27:30.626Z,1.87
2017-08-06T15:29:58.183Z,1.93
2017-08-06T15:32:25.734Z,1.60
2017-08-06T15:34:53.302Z,1.67
2017-08-06T15:37:20.878Z,1.70
2017-08-06T15:39:48.447Z,1.53
2017-08-06T15:42:16.033Z,1.50
2017-08-06T15:44:43.901Z,1.93
2017-08-06T15:47:11.475Z,1.90
2017-08-06T15:49:39.010Z,2.10
2017-08-06T15:52:06.583Z,2.90
2017-08-06T15:54:34.140Z,2.23
2017-08-06T15:57:01.723Z,1.67
2017-08-06T15:59:29.277Z,1.80
2017-08-06T16:01:56.831Z,1.80
2017-08-06T16:04:24.418Z,1.50
2017-08-06T16:06:51.980Z,3.10
2017-08-06T16:09:19.801Z,1.67
2017-08-06T16:11:47.355Z,1.50
2017-08-06T16:14:14.954Z,1.60
2017-08-06T16:16:42.531Z,1.37
2017-08-06T16:19:10.120Z,3.07
2017-08-06T16:21:41.648Z,1.90
2017-08-06T16:24:09.197Z,2.23
2017-08-06T16:26:36.789Z,1.60
2017-08-06T16:29:04.388Z,1.60
2017-08-06T16:31:31.968Z,1.63
2017-08-06T16:33:59.795Z,1.87
2017-08-06T16:36:27.357Z,2.47
2017-08-06T16:38:54.909Z,1.73
2017-08-06T16:41:22.501Z,1.70
2017-08-06T16:43:50.190Z,1.60
2017-08-06T16:46:17.997Z,3.40
2017-08-06T16:48:45.574Z,2.23
2017-08-06T16:51:13.133Z,3.33
2017-08-06T16:53:40.717Z,2.50
2017-08-06T16:56:08.322Z,2.23
2017-08-06T16:58:35.895Z,1.40
2017-08-06T17:01:03.468Z,2.50
2017-08-06T17:03:31.016Z,1.70
2017-08-06T17:05:58.614Z,1.80
2017-08-06T17:08:26.455Z,3.93
2017-08-06T17:10:54.079Z,2.23
2017-08-06T17:13:21.762Z,1.97
2017-08-06T17:15:49.687Z,2.70
2017-08-06T17:18:17.250Z,2.10
2017-08-06T17:20:44.827Z,2.37
2017-08-06T17:23:12.407Z,2.30
2017-08-06T17:25:39.986Z,2.37
2017-08-06T17:28:07.566Z,3.40
2017-08-06T17:30:35.200Z,3.00
2017-08-06T17:33:02.770Z,2.53
2017-08-06T17:35:30.357Z,2.77
2017-08-06T17:37:57.920Z,2.60
2017-08-06T17:40:25.510Z,2.50
2017-08-06T17:42:53.092Z,6.30
2017-08-06T17:45:20.621Z,2.93
2017-08-06T17:47:48.198Z,2.40
2017-08-06T17:50:15.720Z,2.70
2017-08-06T17:52:43.543Z,2.50
2017-08-06T17:55:11.081Z,2.50
2017-08-06T17:57:38.670Z,2.50
2017-08-06T18:00:06.253Z,2.70
2017-08-06T18:02:33.843Z,4.70
2017-08-06T18:05:01.681Z,2.40
2017-08-06T18:07:29.229Z,2.83
2017-08-06T18:09:56.774Z,5.73
2017-08-06T18:12:24.338Z,3.90
2017-08-06T18:14:51.899Z,4.60
2017-08-06T18:17:19.761Z,2.40
2017-08-06T18:19:47.336Z,3.10
2017-08-06T18:22:14.897Z,2.77
2017-08-06T18:24:42.435Z,2.20
2017-08-06T18:27:09.982Z,2.93
2017-08-06T18:29:37.546Z,2.93
2017-08-06T18:32:05.081Z,3.57
2017-08-06T18:34:32.655Z,2.43
2017-08-06T18:37:00.219Z,5.17
2017-08-06T18:39:27.788Z,2.60
2017-08-06T18:41:55.375Z,4.27
2017-08-06T18:44:22.986Z,2.57
2017-08-06T18:46:50.522Z,4.40
2017-08-06T18:49:18.114Z,3.10
2017-08-06T18:51:46.545Z,3.03
2017-08-06T18:54:14.256Z,3.13
2017-08-06T18:56:41.897Z,4.27
2017-08-06T18:59:09.440Z,7.10
2017-08-06T19:01:37.065Z,4.40
2017-08-06T19:04:05.071Z,4.77
2017-08-06T19:06:32.651Z,3.60
2017-08-06T19:09:00.542Z,3.70
2017-08-06T19:11:29.749Z,3.10
2017-08-06T19:13:57.825Z,4.00
2017-08-06T19:16:25.994Z,3.50
2017-08-06T19:18:54.319Z,4.00
2017-08-06T19:21:22.222Z,4.90
2017-08-06T19:23:49.886Z,3.93
2017-08-06T19:26:17.456Z,5.17
2017-08-06T19:28:45.061Z,3.63
2017-08-06T19:31:12.653Z,9.83
2017-08-06T19:33:40.233Z,3.50
2017-08-06T19:36:08.097Z,10.30
2017-08-06T19:38:35.661Z,3.50
2017-08-06T19:41:03.225Z,7.10
2017-08-06T19:43:30.808Z,7.37
2017-08-06T19:45:58.356Z,4.30
2017-08-06T19:48:25.945Z,3.00
2017-08-06T19:50:53.544Z,11.77
2017-08-06T19:53:21.149Z,4.23
2017-08-06T19:55:48.736Z,14.13
2017-08-06T19:58:16.334Z,7.33
2017-08-06T20:00:43.917Z,8.13
2017-08-06T20:03:11.750Z,5.13
2017-08-06T20:05:39.349Z,5.80
2017-08-06T20:08:07.187Z,5.60
2017-08-06T20:10:34.795Z,5.37
2017-08-06T20:13:02.392Z,8.60
2017-08-06T20:15:30.000Z,10.13
2017-08-06T20:17:57.526Z,7.33
2017-08-06T20:20:25.103Z,6.80
2017-08-06T20:22:52.653Z,9.30
2017-08-06T20:25:20.226Z,7.10
2017-08-06T20:27:47.793Z,6.20
2017-08-06T20:30:15.357Z,5.20
2017-08-06T20:32:43.168Z,6.73
2017-08-06T20:35:10.753Z,12.30
2017-08-06T20:37:38.301Z,5.90
2017-08-06T20:40:05.882Z,4.33
2017-08-06T20:42:33.444Z,14.70
2017-08-06T20:45:01.149Z,9.80
2017-08-06T20:47:28.710Z,10.40
2017-08-06T20:49:56.251Z,8.80
2017-08-06T20:52:23.820Z,8.00
2017-08-06T20:54:51.369Z,7.47
2017-08-06T20:57:18.929Z,8.50
2017-08-06T20:59:46.507Z,7.53
2017-08-06T21:02:14.054Z,4.33
2017-08-06T21:04:41.633Z,11.60
2017-08-06T21:07:09.171Z,5.40
2017-08-06T21:09:36.994Z,7.40
2017-08-06T21:12:06.293Z,7.63
2017-08-06T21:14:34.679Z,11.90
2017-08-06T21:17:02.552Z,8.60
2017-08-06T21:19:30.581Z,5.80
2017-08-06T21:21:58.160Z,6.73
2017-08-06T21:24:25.772Z,8.00
2017-08-06T21:26:53.355Z,7.60
2017-08-06T21:29:21.206Z,11.17
2017-08-06T21:31:48.921Z,7.90
2017-08-06T21:34:16.482Z,9.83
2017-08-06T21:36:44.075Z,13.60
2017-08-06T21:52:12.639Z,12.03
2017-08-06T21:54:40.963Z,4.53
2017-08-06T21:57:08.805Z,5.53
2017-08-06T21:59:36.356Z,5.03
2017-08-06T22:02:03.953Z,8.73
2017-08-06T22:04:31.574Z,5.53
2017-08-06T22:06:59.133Z,5.17
2017-08-06T22:09:26.696Z,5.20
2017-08-06T22:11:54.530Z,7.37
2017-08-06T22:14:22.122Z,5.40
2017-08-06T22:16:49.683Z,5.87
2017-08-06T22:19:17.247Z,10.83
2017-08-06T22:21:44.920Z,9.53
2017-08-06T22:24:12.578Z,9.03
2017-08-06T22:26:40.255Z,5.40
2017-08-06T22:29:08.158Z,5.83
2017-08-06T22:31:35.738Z,7.50
2017-08-06T22:34:03.301Z,9.67
2017-08-06T22:36:31.720Z,6.87
2017-08-06T22:38:59.305Z,4.87
2017-08-06T22:41:27.279Z,5.97
2017-08-06T22:43:54.839Z,7.03
2017-08-06T22:46:22.387Z,4.97
2017-08-06T22:48:50.079Z,4.73
2017-08-06T22:51:18.430Z,11.63
2017-08-06T22:53:46.057Z,5.43
2017-08-06T22:56:13.628Z,6.70
2017-08-06T22:58:41.165Z,5.63
2017-08-06T23:01:08.726Z,4.20
2017-08-06T23:03:36.274Z,5.70
2017-08-06T23:06:03.835Z,7.23
2017-08-06T23:08:31.405Z,8.47
2017-08-06T23:10:58.956Z,9.47
2017-08-06T23:13:26.573Z,10.23
2017-08-06T23:15:54.169Z,11.57
2017-08-06T23:18:21.739Z,4.80
2017-08-06T23:20:49.279Z,5.93
2017-08-06T23:23:17.705Z,9.20
2017-08-06T23:25:45.275Z,5.97
2017-08-06T23:28:12.824Z,6.93
2017-08-06T23:30:40.390Z,5.80
2017-08-06T23:33:07.915Z,9.00
2017-08-06T23:35:35.473Z,11.23
2017-08-06T23:38:03.056Z,4.60
2017-08-06T23:40:30.617Z,14.03
2017-08-06T23:42:58.453Z,7.17
2017-08-06T23:45:26.025Z,6.10
2017-08-06T23:47:53.579Z,5.90
2017-08-06T23:50:21.118Z,6.60
2017-08-06T23:52:48.662Z,4.53
2017-08-06T23:55:17.006Z,6.50
2017-08-06T23:57:44.549Z,5.73
